Time;durP1;ratioP1;P1;durP2;ratioP2;P2;SDS_P1;SDS_P2;PMS_P1;PMS_P2;Temp;Humidity;BMP_temperature;BMP_pressure;BME280_temperature;BME280_humidity;BME280_pressure;Samples;Min_cycle;Max_cycle;Signal;HPM_P1;HPM_P2
2021/11/09 00:01:18;;;;;;;7.40;4.32;;;0.20;99.90;;;;;;4750829;30;20049;-84
2021/11/09 00:08:56;;;;;;;3.22;2.92;;;0.40;99.90;;;;;;4753505;30;20055;-84
2021/11/09 00:11:25;;;;;;;9.38;4.53;;;0.60;99.90;;;;;;4749050;30;20406;-84
2021/11/09 00:13:54;;;;;;;3.67;3.33;;;0.50;99.90;;;;;;4748584;30;20048;-84
2021/11/09 00:16:22;;;;;;;6.65;6.05;;;0.60;99.90;;;;;;4761963;30;20523;-84
2021/11/09 00:18:50;;;;;;;9.82;4.28;;;0.50;99.90;;;;;;4739987;30;20063;-84
2021/11/09 00:21:20;;;;;;;8.23;4.47;;;0.60;99.90;;;;;;4750945;30;20073;-84
2021/11/09 00:23:47;;;;;;;4.30;3.85;;;0.50;99.90;;;;;;4761915;30;20405;-84
2021/11/09 00:26:16;;;;;;;10.77;5.13;;;0.50;99.90;;;;;;4767237;30;20410;-84
2021/11/09 00:28:45;;;;;;;6.75;4.63;;;0.50;99.90;;;;;;4750350;30;20487;-84
2021/11/09 00:31:12;;;;;;;8.05;4.72;;;0.50;99.90;;;;;;4749875;30;20074;-84
2021/11/09 00:33:41;;;;;;;9.40;4.30;;;0.60;99.90;;;;;;4759748;30;20841;-84
2021/11/09 00:36:08;;;;;;;11.38;5.90;;;0.60;99.90;;;;;;4750194;30;20391;-84
2021/11/09 00:38:37;;;;;;;5.00;4.32;;;0.70;99.90;;;;;;4750961;30;20072;-84
2021/11/09 00:41:05;;;;;;;6.07;4.30;;;0.70;99.90;;;;;;4734464;30;20070;-84
2021/11/09 00:43:33;;;;;;;6.93;4.55;;;0.70;99.90;;;;;;4749363;30;20056;-85
2021/11/09 00:46:02;;;;;;;6.65;4.68;;;0.70;99.90;;;;;;4734574;30;20071;-84
2021/11/09 00:48:29;;;;;;;6.80;4.47;;;0.70;99.90;;;;;;4749453;30;20052;-84
2021/11/09 00:50:57;;;;;;;5.20;4.55;;;0.70;99.90;;;;;;4749283;30;20044;-84
2021/11/09 00:53:25;;;;;;;9.52;6.35;;;0.70;99.90;;;;;;4749456;30;20048;-84
2021/11/09 00:55:54;;;;;;;9.80;6.40;;;0.80;99.90;;;;;;4732331;30;20064;-84
2021/11/09 00:58:22;;;;;;;10.32;4.65;;;0.90;99.90;;;;;;4724511;30;20059;-83
2021/11/09 01:00:50;;;;;;;6.93;6.05;;;0.90;99.90;;;;;;4751092;30;20056;-84
2021/11/09 01:03:18;;;;;;;7.88;5.20;;;0.80;99.90;;;;;;4749513;30;20060;-84
2021/11/09 01:05:46;;;;;;;6.63;5.85;;;0.80;99.90;;;;;;4749937;30;20090;-84
2021/11/09 01:08:15;;;;;;;5.53;4.57;;;0.80;99.90;;;;;;4735566;30;20095;-84
2021/11/09 01:10:47;;;;;;;11.45;6.03;;;0.70;99.90;;;;;;4750288;30;20083;-84
2021/11/09 01:13:16;;;;;;;9.70;5.30;;;0.70;99.90;;;;;;4735200;30;20060;-84
2021/11/09 01:15:48;;;;;;;14.13;5.97;;;0.70;99.90;;;;;;4759633;30;20052;-84
2021/11/09 01:18:20;;;;;;;4.60;4.18;;;0.80;99.90;;;;;;4749472;30;20056;-84
2021/11/09 01:20:48;;;;;;;9.43;5.43;;;0.70;99.90;;;;;;4751883;30;20407;-84
2021/11/09 01:23:16;;;;;;;13.18;7.22;;;0.60;99.90;;;;;;4739017;30;20452;-85
2021/11/09 01:25:44;;;;;;;9.88;6.22;;;0.60;99.90;;;;;;4741498;30;20064;-84
2021/11/09 01:28:13;;;;;;;11.27;5.20;;;0.60;99.90;;;;;;4750157;30;20063;-84
2021/11/09 01:30:41;;;;;;;10.50;5.60;;;0.60;99.90;;;;;;4762206;30;20047;-84
2021/11/09 01:33:10;;;;;;;5.72;3.67;;;0.50;99.90;;;;;;4768038;29;20060;-84
2021/11/09 01:35:38;;;;;;;10.05;5.43;;;0.40;99.90;;;;;;4767102;30;20063;-84
2021/11/09 01:38:07;;;;;;;6.88;5.05;;;0.40;99.90;;;;;;4750182;30;20419;-84
2021/11/09 01:40:36;;;;;;;7.88;4.95;;;0.40;99.90;;;;;;4750564;30;20077;-84
2021/11/09 01:43:05;;;;;;;7.93;5.90;;;0.40;99.90;;;;;;4734485;30;20060;-84
2021/11/09 01:45:33;;;;;;;8.25;6.25;;;0.40;99.90;;;;;;4750639;30;20066;-84
2021/11/09 01:48:03;;;;;;;7.72;6.10;;;0.40;99.90;;;;;;4733810;30;20060;-84
2021/11/09 01:50:35;;;;;;;8.70;5.28;;;0.40;99.90;;;;;;4749415;30;20135;-84
2021/11/09 01:53:05;;;;;;;35.35;5.63;;;0.40;99.90;;;;;;4734623;30;20052;-84
2021/11/09 01:55:33;;;;;;;7.55;5.35;;;0.30;99.90;;;;;;4750493;30;20056;-84
2021/11/09 01:58:02;;;;;;;11.45;5.22;;;0.30;99.90;;;;;;4733896;30;20049;-84
2021/11/09 02:00:34;;;;;;;12.45;5.18;;;0.20;99.90;;;;;;4750384;30;20063;-84
2021/11/09 02:03:03;;;;;;;16.38;6.75;;;0.10;99.90;;;;;;4749886;30;20055;-84
2021/11/09 02:05:32;;;;;;;14.88;5.85;;;0.00;99.90;;;;;;4750175;30;20818;-84
2021/11/09 02:08:02;;;;;;;6.70;6.00;;;-0.10;99.90;;;;;;4750829;30;20500;-84
2021/11/09 02:10:35;;;;;;;9.02;6.72;;;0.00;99.90;;;;;;4749378;30;20052;-84
2021/11/09 02:13:03;;;;;;;11.30;8.07;;;0.00;99.90;;;;;;4749771;30;20063;-84
2021/11/09 02:15:32;;;;;;;5.63;5.07;;;0.00;99.90;;;;;;4763816;30;20064;-84
2021/11/09 02:18:00;;;;;;;6.07;4.07;;;-0.10;99.90;;;;;;4767344;30;20409;-84
2021/11/09 02:20:29;;;;;;;9.57;6.05;;;-0.30;99.90;;;;;;4752293;30;20047;-85
2021/11/09 02:22:58;;;;;;;12.20;6.25;;;-0.30;99.90;;;;;;4767903;30;20518;-84
2021/11/09 02:25:28;;;;;;;7.93;5.55;;;-0.30;99.90;;;;;;4767595;30;20493;-84
2021/11/09 02:27:59;;;;;;;8.75;6.38;;;-0.30;99.90;;;;;;4751853;30;20414;-85
2021/11/09 02:30:31;;;;;;;11.57;7.75;;;-0.20;99.90;;;;;;4767135;30;20058;-84
2021/11/09 02:32:59;;;;;;;32.53;7.05;;;-0.20;99.90;;;;;;4767386;30;20051;-85
2021/11/09 02:35:31;;;;;;;47.70;7.53;;;-0.20;99.90;;;;;;4767314;30;20063;-85
2021/11/09 02:38:00;;;;;;;18.50;6.30;;;-0.30;99.90;;;;;;4767526;30;20056;-84
2021/11/09 02:40:28;;;;;;;14.30;7.45;;;-0.40;99.90;;;;;;4767515;30;20792;-84
2021/11/09 02:43:02;;;;;;;11.50;5.72;;;-0.40;99.90;;;;;;4767602;30;20062;-89
2021/11/09 02:45:36;;;;;;;9.77;5.05;;;-0.40;99.90;;;;;;4766511;30;20398;-90
2021/11/09 02:50:40;;;;;;;6.75;5.85;;;-0.30;99.90;;;;;;4749486;30;20141;-89
2021/11/09 02:55:42;;;;;;;7.35;5.45;;;-0.40;99.90;;;;;;4749042;30;20056;-89
2021/11/09 03:01:02;;;;;;;15.90;5.70;;;-0.50;99.90;;;;;;4750045;30;20141;-89
2021/11/09 03:03:41;;;;;;;11.30;4.15;;;-0.50;99.90;;;;;;4733507;30;20067;-89
2021/11/09 03:06:22;;;;;;;6.70;5.93;;;-0.60;99.90;;;;;;4750057;30;20061;-89
2021/11/09 03:09:16;;;;;;;8.50;6.17;;;-0.40;99.90;;;;;;4734745;30;20492;-88
2021/11/09 03:11:50;;;;;;;6.10;5.20;;;-0.40;99.90;;;;;;4732227;30;20052;-88
2021/11/09 03:14:20;;;;;;;7.68;6.85;;;-0.40;99.90;;;;;;4761396;30;20055;-89
2021/11/09 03:16:48;;;;;;;10.65;7.88;;;-0.30;99.90;;;;;;4785691;30;20055;-89
2021/11/09 03:44:42;;;;;;;11.05;7.30;;;-0.80;99.90;;;;;;4789176;30;20047;-90
2021/11/09 03:47:13;;;;;;;12.45;8.32;;;-0.80;99.90;;;;;;4771546;30;20502;-90
2021/11/09 03:49:43;;;;;;;7.50;4.78;;;-0.90;99.90;;;;;;4788778;29;20047;-89
2021/11/09 03:52:17;;;;;;;9.13;5.72;;;-0.90;99.90;;;;;;4772789;30;20059;-89
2021/11/09 03:54:48;;;;;;;13.68;5.82;;;-0.90;99.90;;;;;;4788429;29;20055;-89
2021/11/09 03:57:25;;;;;;;13.10;6.60;;;-0.80;99.90;;;;;;4788000;30;20504;-90
2021/11/09 04:02:45;;;;;;;9.73;5.85;;;-0.80;99.90;;;;;;4787767;29;20055;-89
2021/11/09 04:05:16;;;;;;;8.85;7.07;;;-0.70;99.90;;;;;;4788245;29;20054;-89
2021/11/09 04:08:03;;;;;;;7.80;6.85;;;-0.70;99.90;;;;;;4772125;29;20062;-90
2021/11/09 04:10:56;;;;;;;11.93;5.35;;;-0.80;99.90;;;;;;4747597;30;20126;-89
2021/11/09 04:16:08;;;;;;;9.02;5.47;;;-0.80;99.90;;;;;;4756798;30;20566;-90
2021/11/09 04:26:48;;;;;;;72.47;8.02;;;-0.60;99.90;;;;;;4769549;30;20051;-85
2021/11/09 04:40:02;;;;;;;10.85;5.97;;;-0.70;99.90;;;;;;4784764;30;20059;-81
2021/11/09 05:09:24;;;;;;;29.48;6.60;;;-0.70;99.90;;;;;;4735017;30;20566;-80
2021/11/09 05:11:52;;;;;;;29.15;6.20;;;-0.70;99.90;;;;;;4769150;30;20086;-81
2021/11/09 05:14:20;;;;;;;29.25;4.80;;;-0.70;99.90;;;;;;4758420;29;20058;-81
2021/11/09 05:16:47;;;;;;;14.38;4.50;;;-0.80;99.90;;;;;;4786633;30;20059;-80
2021/11/09 05:19:15;;;;;;;12.25;5.03;;;-0.90;99.90;;;;;;4770345;30;20454;-80
2021/11/09 05:21:43;;;;;;;29.30;4.82;;;-1.00;99.90;;;;;;4770391;30;20073;-81
2021/11/09 05:24:11;;;;;;;49.72;8.35;;;-1.00;99.90;;;;;;4753383;30;20496;-81
2021/11/09 05:26:42;;;;;;;26.77;5.65;;;-1.10;99.90;;;;;;4754027;30;20529;-81
2021/11/09 05:29:11;;;;;;;11.90;5.55;;;-1.00;99.90;;;;;;4750401;30;20064;-81
2021/11/09 05:31:40;;;;;;;7.38;5.57;;;-1.10;99.90;;;;;;4770352;30;20063;-81
2021/11/09 05:34:10;;;;;;;17.05;5.90;;;-1.10;99.90;;;;;;4782346;29;20067;-81
2021/11/09 05:36:40;;;;;;;10.52;5.43;;;-1.10;99.90;;;;;;4753157;30;20086;-81
2021/11/09 05:39:21;;;;;;;16.80;8.05;;;-1.10;99.90;;;;;;4752565;30;20063;-81
2021/11/09 05:41:52;;;;;;;14.65;5.22;;;-1.00;99.90;;;;;;4767987;29;20486;-81
2021/11/09 05:44:19;;;;;;;19.13;6.85;;;-1.10;99.90;;;;;;4752941;30;20495;-81
2021/11/09 05:46:47;;;;;;;47.38;9.13;;;-1.10;99.90;;;;;;4767262;30;20060;-81
2021/11/09 05:49:15;;;;;;;11.30;5.72;;;-1.20;99.90;;;;;;4768229;30;20055;-81
2021/11/09 05:51:43;;;;;;;27.88;6.70;;;-1.30;99.90;;;;;;4767977;30;20063;-81
2021/11/09 05:54:10;;;;;;;125.85;16.63;;;-1.30;99.90;;;;;;4762530;29;20060;-80
2021/11/09 05:56:41;;;;;;;19.25;6.53;;;-1.20;99.90;;;;;;4752765;30;20433;-82
2021/11/09 05:59:16;;;;;;;31.52;7.47;;;-1.20;99.90;;;;;;4753052;30;20040;-80
2021/11/09 06:01:43;;;;;;;9.27;5.18;;;-1.20;99.90;;;;;;4751061;30;20387;-79
2021/11/09 06:04:11;;;;;;;7.30;5.30;;;-1.20;99.90;;;;;;4766828;30;20055;-82
2021/11/09 06:06:39;;;;;;;75.85;9.05;;;-1.20;99.90;;;;;;4742592;30;20517;-82
2021/11/09 06:09:07;;;;;;;14.68;6.72;;;-1.30;99.90;;;;;;4760137;30;20054;-85
2021/11/09 06:11:35;;;;;;;12.48;6.72;;;-1.20;99.90;;;;;;4737602;30;20561;-82
2021/11/09 06:14:03;;;;;;;23.50;7.43;;;-1.20;99.90;;;;;;4755409;30;20047;-82
2021/11/09 06:16:31;;;;;;;10.70;6.38;;;-1.20;99.90;;;;;;4770040;30;20058;-81
2021/11/09 06:18:59;;;;;;;9.23;6.68;;;-1.10;99.90;;;;;;4755469;30;20056;-80
2021/11/09 06:21:27;;;;;;;9.27;5.40;;;-1.20;99.90;;;;;;4756390;30;20611;-82
2021/11/09 06:23:54;;;;;;;10.55;6.72;;;-1.10;99.90;;;;;;4744455;30;20063;-81
2021/11/09 06:26:23;;;;;;;11.07;9.23;;;-1.10;99.90;;;;;;4771119;29;20417;-84
2021/11/09 06:28:56;;;;;;;12.38;8.32;;;-1.10;99.90;;;;;;4769642;30;20051;-82
2021/11/09 06:31:27;;;;;;;160.73;14.57;;;-1.00;99.90;;;;;;4764517;30;20056;-81
2021/11/09 06:33:55;;;;;;;8.48;6.57;;;-1.10;99.90;;;;;;4737729;30;20534;-81
2021/11/09 06:36:23;;;;;;;13.20;6.60;;;-1.10;99.90;;;;;;4751918;30;20060;-81
2021/11/09 06:38:51;;;;;;;51.63;8.13;;;-1.10;99.90;;;;;;4742693;30;20055;-81
2021/11/09 06:41:19;;;;;;;14.07;8.77;;;-1.20;99.90;;;;;;4760746;29;20533;-81
2021/11/09 06:43:46;;;;;;;11.25;7.28;;;-1.10;99.90;;;;;;4751259;30;20056;-82
2021/11/09 06:46:14;;;;;;;14.55;7.90;;;-1.10;99.90;;;;;;4750316;30;20064;-82
2021/11/09 06:48:44;;;;;;;11.00;6.45;;;-1.10;99.90;;;;;;4756612;30;20048;-82
2021/11/09 06:51:12;;;;;;;14.00;7.13;;;-1.10;99.90;;;;;;4737120;30;20051;-81
2021/11/09 06:53:42;;;;;;;42.50;6.45;;;-1.00;99.90;;;;;;4733705;30;20060;-81
2021/11/09 06:56:10;;;;;;;59.22;9.32;;;-1.00;99.90;;;;;;4734433;30;20071;-81
2021/11/09 06:58:38;;;;;;;32.22;8.48;;;-1.00;99.90;;;;;;4736138;30;20048;-81
2021/11/09 07:01:06;;;;;;;11.20;7.15;;;-0.90;99.90;;;;;;4752362;30;20488;-81
2021/11/09 07:03:34;;;;;;;34.38;6.53;;;-1.00;99.90;;;;;;4737100;30;20049;-81
2021/11/09 07:06:05;;;;;;;14.73;7.03;;;-1.00;99.90;;;;;;4737427;30;20044;-79
2021/11/09 07:08:33;;;;;;;26.40;6.00;;;-0.90;99.90;;;;;;4737750;30;20055;-81
2021/11/09 07:11:03;;;;;;;17.83;5.55;;;-0.80;99.90;;;;;;4721983;30;20048;-81
2021/11/09 07:13:32;;;;;;;21.65;6.63;;;-1.00;99.90;;;;;;4736968;30;20064;-81
2021/11/09 07:16:02;;;;;;;7.47;6.82;;;-0.90;99.90;;;;;;4770959;30;20063;-81
2021/11/09 07:18:30;;;;;;;13.90;6.25;;;-0.80;99.90;;;;;;4770217;30;20081;-81
2021/11/09 07:20:58;;;;;;;14.63;7.05;;;-0.80;99.90;;;;;;4754980;30;20051;-81
2021/11/09 07:23:26;;;;;;;24.40;7.18;;;-0.90;99.90;;;;;;4770566;29;20056;-79
2021/11/09 07:25:54;;;;;;;8.30;6.65;;;-0.80;99.90;;;;;;4754092;30;20537;-79
2021/11/09 07:28:22;;;;;;;29.33;7.53;;;-0.70;99.90;;;;;;4754643;30;20058;-79
2021/11/09 07:31:01;;;;;;;21.25;8.20;;;-0.60;99.90;;;;;;4752467;30;20070;-81
2021/11/09 07:33:30;;;;;;;82.38;10.20;;;-0.60;99.90;;;;;;4771735;29;20058;-81
2021/11/09 07:35:58;;;;;;;20.75;5.53;;;-0.50;99.90;;;;;;4787550;30;20494;-80
2021/11/09 07:38:26;;;;;;;15.75;7.10;;;-0.50;99.90;;;;;;4750231;30;20052;-80
2021/11/09 07:40:54;;;;;;;55.15;9.65;;;-0.30;99.90;;;;;;4766606;30;20056;-83
2021/11/09 07:43:23;;;;;;;17.80;7.10;;;-0.30;99.90;;;;;;4734456;30;20394;-82
2021/11/09 07:45:51;;;;;;;103.35;10.70;;;-0.30;99.90;;;;;;4740015;30;20045;-81
2021/11/09 07:48:19;;;;;;;45.10;7.72;;;-0.30;99.90;;;;;;4752595;30;20055;-82
2021/11/09 07:50:46;;;;;;;24.27;7.13;;;-0.30;99.90;;;;;;4738302;30;20060;-83
2021/11/09 07:53:18;;;;;;;47.17;4.72;;;-0.20;99.90;;;;;;4738765;30;20060;-81
2021/11/09 07:56:05;;;;;;;;;;;-0.10;99.90;;;;;;4770668;30;20055;-83
2021/11/09 08:01:32;;;;;;;7.47;6.20;;;0.00;99.90;;;;;;4755204;30;20059;-83
2021/11/09 08:04:14;;;;;;;24.30;8.25;;;0.00;99.90;;;;;;4753832;30;20052;-81
2021/11/09 08:09:21;;;;;;;17.70;8.38;;;0.30;99.90;;;;;;4770130;29;20431;-81
2021/11/09 08:11:49;;;;;;;26.95;9.02;;;0.40;99.90;;;;;;4760592;30;20067;-82
2021/11/09 08:14:18;;;;;;;28.35;9.20;;;0.30;99.90;;;;;;4764511;30;20048;-81
2021/11/09 08:16:47;;;;;;;13.05;9.23;;;0.30;99.90;;;;;;4770931;30;20059;-81
2021/11/09 08:19:17;;;;;;;11.73;7.93;;;0.30;99.90;;;;;;4774077;29;20052;-81
2021/11/09 08:21:47;;;;;;;20.85;9.77;;;0.40;99.90;;;;;;4766796;30;21052;-81
2021/11/09 08:24:18;;;;;;;14.45;8.00;;;0.50;99.90;;;;;;4772821;30;20063;-81
2021/11/09 08:26:48;;;;;;;;;;;0.70;99.90;;;;;;4740802;30;20400;-81
2021/11/09 08:29:27;;;;;;;5.57;5.15;;;0.80;99.90;;;;;;4778366;29;19926;-81
2021/11/09 08:32:00;;;;;;;10.13;7.90;;;0.90;99.90;;;;;;4784615;30;21336;-81
2021/11/09 08:34:35;;;;;;;15.55;7.65;;;0.90;99.90;;;;;;4761424;30;20050;-82
2021/11/09 08:37:11;;;;;;;11.15;9.65;;;1.00;99.90;;;;;;4783639;29;20066;-82
2021/11/09 08:39:48;;;;;;;41.58;9.05;;;1.00;99.90;;;;;;4770082;30;20047;-82
2021/11/09 08:42:36;;;;;;;33.50;10.07;;;1.10;99.90;;;;;;4750748;30;20055;-81
2021/11/09 08:45:26;;;;;;;52.25;10.52;;;1.10;99.90;;;;;;4755739;29;20079;-82
2021/11/09 08:48:04;;;;;;;32.70;12.32;;;1.10;99.90;;;;;;4744694;30;20068;-82
2021/11/09 08:50:32;;;;;;;73.38;15.48;;;1.10;99.90;;;;;;4770072;29;20051;-85
2021/11/09 08:53:07;;;;;;;43.25;8.90;;;1.10;99.90;;;;;;4750449;30;20059;-85
2021/11/09 08:58:19;;;;;;;108.40;43.58;;;1.30;99.90;;;;;;4700989;30;20052;-82
2021/11/09 09:06:21;;;;;;;23.17;9.93;;;1.60;99.90;;;;;;4725000;30;20045;-86
2021/11/09 09:08:49;;;;;;;18.73;8.73;;;1.70;99.90;;;;;;4722424;30;20064;-85
2021/11/09 09:11:19;;;;;;;19.83;11.57;;;1.70;99.90;;;;;;4719417;30;20069;-84
2021/11/09 09:13:46;;;;;;;6.47;5.80;;;1.80;99.90;;;;;;4721101;30;20056;-87
2021/11/09 09:16:14;;;;;;;13.18;10.00;;;1.90;99.90;;;;;;4704052;30;20314;-85
2021/11/09 09:18:43;;;;;;;6.07;4.95;;;2.00;99.90;;;;;;4771936;24;20040;-81
2021/11/09 09:21:18;;;;;;;9.40;7.35;;;1.90;99.90;;;;;;4772938;29;20054;-83
2021/11/09 09:23:51;;;;;;;11.80;9.05;;;2.00;99.90;;;;;;4775234;30;20619;-81
2021/11/09 09:31:52;;;;;;;8.93;7.72;;;2.40;99.90;;;;;;4757074;30;20055;-82
2021/11/09 09:56:31;;;;;;;9.00;7.82;;;3.70;99.90;;;;;;4774128;29;20075;-81
2021/11/09 09:59:03;;;;;;;11.10;6.18;;;3.90;99.90;;;;;;4745339;30;20052;-81
2021/11/09 10:02:03;;;;;;;8.82;4.60;;;3.80;99.90;;;;;;4768613;30;20051;-81
2021/11/09 10:04:33;;;;;;;11.50;10.23;;;3.80;99.90;;;;;;4770254;30;20051;-81
2021/11/09 10:07:02;;;;;;;7.10;6.47;;;3.80;99.90;;;;;;4774242;30;20059;-82
2021/11/09 10:09:40;;;;;;;14.20;8.52;;;3.80;99.90;;;;;;4774092;30;20051;-80
2021/11/09 10:12:33;;;;;;;24.55;7.20;;;3.90;99.90;;;;;;4777509;30;20055;-80
2021/11/09 10:15:09;;;;;;;12.95;6.60;;;4.00;99.90;;;;;;4768323;29;20067;-80
2021/11/09 10:17:40;;;;;;;9.00;8.20;;;4.00;99.90;;;;;;4774036;30;20047;-82
2021/11/09 10:20:14;;;;;;;;;;;4.10;99.90;;;;;;4773480;30;20484;-80
2021/11/09 10:22:44;;;;;;;12.48;5.63;;;4.00;99.90;;;;;;4774555;29;19952;-79
2021/11/09 10:25:21;;;;;;;7.32;6.55;;;4.00;99.90;;;;;;4773504;30;20055;-79
2021/11/09 10:27:51;;;;;;;9.85;7.07;;;4.00;99.90;;;;;;4775909;30;20075;-79
2021/11/09 10:30:24;;;;;;;13.77;8.52;;;4.20;99.90;;;;;;4760826;30;20051;-78
2021/11/09 10:32:52;;;;;;;12.73;7.22;;;4.20;99.90;;;;;;4776272;29;20052;-78
2021/11/09 10:35:22;;;;;;;10.13;7.80;;;4.10;99.90;;;;;;4775236;29;20715;-79
2021/11/09 10:37:53;;;;;;;9.23;7.57;;;4.10;99.90;;;;;;4777685;30;20410;-79
2021/11/09 10:40:25;;;;;;;9.18;8.27;;;4.20;99.90;;;;;;4761709;30;20056;-78
2021/11/09 10:42:58;;;;;;;15.70;6.82;;;4.30;99.90;;;;;;4775932;29;20422;-79
2021/11/09 10:45:29;;;;;;;9.68;7.97;;;4.50;99.90;;;;;;4775863;30;20477;-78
2021/11/09 10:48:06;;;;;;;17.92;12.00;;;4.50;99.90;;;;;;4761210;30;20446;-78
2021/11/09 10:50:36;;;;;;;17.08;8.55;;;4.60;99.90;;;;;;4759939;30;20491;-79
2021/11/09 10:53:19;;;;;;;12.45;9.70;;;4.70;99.90;;;;;;4775881;30;20063;-78
2021/11/09 11:04:12;;;;;;;10.68;9.70;;;4.80;99.90;;;;;;4776995;30;20063;-80
2021/11/09 11:06:44;;;;;;;11.52;7.40;;;4.80;99.90;;;;;;4772960;30;21599;-81
2021/11/09 11:09:11;;;;;;;9.15;8.25;;;4.80;99.90;;;;;;4773532;29;20530;-81
2021/11/09 11:12:06;;;;;;;8.80;6.47;;;5.00;99.90;;;;;;4772748;30;20048;-81
2021/11/09 11:14:36;;;;;;;8.82;6.07;;;5.10;99.90;;;;;;4760721;30;20048;-81
2021/11/09 11:17:17;;;;;;;16.40;9.85;;;5.10;99.90;;;;;;4771505;30;20066;-81
2021/11/09 11:19:48;;;;;;;13.02;8.00;;;5.10;99.90;;;;;;4758752;30;20082;-81
2021/11/09 11:22:21;;;;;;;19.73;12.10;;;5.20;99.90;;;;;;4771896;29;20535;-82
2021/11/09 11:24:51;;;;;;;12.57;8.90;;;5.10;99.90;;;;;;4773261;30;20322;-83
2021/11/09 11:27:20;;;;;;;9.43;6.40;;;5.10;99.90;;;;;;4773888;29;20059;-82
2021/11/09 11:29:49;;;;;;;14.30;7.68;;;5.20;99.90;;;;;;4775235;30;20418;-80
2021/11/09 11:32:24;;;;;;;13.05;8.45;;;5.30;99.90;;;;;;4756764;30;20059;-79
2021/11/09 11:34:53;;;;;;;4.43;4.05;;;5.30;99.90;;;;;;4740725;30;20465;-79
2021/11/09 11:37:22;;;;;;;6.13;5.47;;;5.30;99.90;;;;;;4757870;30;20066;-79
2021/11/09 11:39:54;;;;;;;8.02;7.32;;;5.30;99.90;;;;;;4744674;30;20059;-78
2021/11/09 11:42:22;;;;;;;10.73;6.78;;;5.30;99.90;;;;;;4758159;29;20044;-80
2021/11/09 11:45:00;;;;;;;7.22;5.85;;;5.30;99.90;;;;;;4747146;30;20056;-79
2021/11/09 11:47:28;;;;;;;13.07;8.75;;;5.30;99.90;;;;;;4762048;30;20044;-80
2021/11/09 11:49:59;;;;;;;19.02;10.60;;;5.20;99.90;;;;;;4748636;30;20039;-80
2021/11/09 11:52:32;;;;;;;12.65;9.02;;;5.40;99.90;;;;;;4764433;30;20062;-78
2021/11/09 11:55:09;;;;;;;11.70;9.32;;;5.60;99.90;;;;;;4779117;29;20059;-79
2021/11/09 11:57:42;;;;;;;12.15;8.43;;;5.50;99.90;;;;;;4778501;30;20525;-80
2021/11/09 12:00:40;;;;;;;11.07;8.88;;;5.60;99.90;;;;;;4779883;30;20055;-79
2021/11/09 12:03:18;;;;;;;12.38;8.48;;;5.60;99.90;;;;;;4777602;30;20525;-79
2021/11/09 12:05:49;;;;;;;13.88;8.65;;;5.60;99.90;;;;;;4777233;29;20051;-80
2021/11/09 12:08:39;;;;;;;13.07;9.07;;;5.60;99.90;;;;;;4763376;30;20058;-81
2021/11/09 12:11:09;;;;;;;10.77;8.80;;;5.60;99.90;;;;;;4776404;30;20075;-81
2021/11/09 12:14:00;;;;;;;11.93;7.82;;;5.60;99.90;;;;;;4761700;30;20432;-80
2021/11/09 12:16:49;;;;;;;12.73;10.68;;;5.60;99.90;;;;;;4763624;30;20035;-81
2021/11/09 12:19:38;;;;;;;10.63;9.52;;;5.60;99.90;;;;;;4750057;30;20047;-82
2021/11/09 12:22:33;;;;;;;10.93;9.57;;;5.70;99.90;;;;;;4751621;30;20043;-82
2021/11/09 12:25:01;;;;;;;14.38;10.85;;;5.90;99.90;;;;;;4732145;30;20426;-80
2021/11/09 12:27:47;;;;;;;12.18;8.85;;;6.00;99.90;;;;;;4760373;30;20406;-80
2021/11/09 12:30:35;;;;;;;11.98;7.97;;;5.80;99.90;;;;;;4761152;30;20044;-81
2021/11/09 12:33:11;;;;;;;9.40;7.07;;;5.80;99.90;;;;;;4758924;29;20071;-83
2021/11/09 12:36:05;;;;;;;9.15;7.63;;;5.80;99.90;;;;;;4761568;30;20047;-83
2021/11/09 12:38:49;;;;;;;14.27;10.07;;;5.80;99.90;;;;;;4748873;30;20047;-80
2021/11/09 12:41:31;;;;;;;13.38;8.68;;;5.90;99.90;;;;;;4762462;30;20043;-84
2021/11/09 12:44:06;;;;;;;11.98;7.85;;;5.90;99.90;;;;;;4775462;30;20040;-81
2021/11/09 12:46:42;;;;;;;11.27;8.52;;;6.00;99.90;;;;;;4761377;30;20494;-84
2021/11/09 12:49:16;;;;;;;19.00;17.08;;;6.10;99.90;;;;;;4747643;29;20055;-82
2021/11/09 12:51:50;;;;;;;10.48;9.38;;;6.30;99.90;;;;;;4748314;30;20429;-82
2021/11/09 12:54:23;;;;;;;9.88;8.63;;;6.20;99.90;;;;;;4759425;30;20410;-83
2021/11/09 12:56:56;;;;;;;14.85;8.27;;;6.20;99.90;;;;;;4777028;30;20058;-82
2021/11/09 13:04:54;;;;;;;13.57;11.45;;;6.30;99.90;;;;;;4761527;30;20056;-82
2021/11/09 13:10:22;;;;;;;11.73;8.00;;;6.20;99.90;;;;;;4765962;30;20044;-83
2021/11/09 13:12:52;;;;;;;7.10;5.65;;;6.40;99.90;;;;;;4773838;30;20059;-86
2021/11/09 13:15:22;;;;;;;12.65;9.80;;;6.60;99.90;;;;;;4770684;30;20414;-80
2021/11/09 13:17:57;;;;;;;15.98;8.65;;;6.60;99.90;;;;;;4776708;30;20043;-84
2021/11/09 13:23:20;;;;;;;10.05;6.47;;;6.60;99.90;;;;;;4774166;29;20047;-83
2021/11/09 13:26:00;;;;;;;10.90;6.78;;;6.50;99.90;;;;;;4776281;30;20044;-82
2021/11/09 13:28:34;;;;;;;9.25;7.43;;;6.60;99.90;;;;;;4762096;30;20059;-84
2021/11/09 13:31:09;;;;;;;8.68;6.88;;;6.50;99.90;;;;;;4742700;30;20063;-85
2021/11/09 13:33:53;;;;;;;7.88;4.80;;;6.60;99.90;;;;;;4756969;30;20051;-84
2021/11/09 13:36:22;;;;;;;8.02;6.90;;;6.50;99.90;;;;;;4769196;30;20054;-81
2021/11/09 13:38:50;;;;;;;10.25;8.73;;;6.60;99.90;;;;;;4745281;30;20054;-85
2021/11/09 13:41:23;;;;;;;7.85;7.03;;;6.70;99.90;;;;;;4772319;29;20504;-84
2021/11/09 13:43:55;;;;;;;7.78;6.90;;;6.80;99.90;;;;;;4762140;30;20055;-82
2021/11/09 13:46:38;;;;;;;14.60;10.27;;;6.70;99.90;;;;;;4767636;29;20055;-87
2021/11/09 13:49:14;;;;;;;7.90;6.30;;;6.70;99.90;;;;;;4776814;29;20051;-86
2021/11/09 13:51:51;;;;;;;6.78;6.18;;;6.80;99.90;;;;;;4755591;30;20407;-86
2021/11/09 13:54:25;;;;;;;14.02;9.05;;;6.70;99.90;;;;;;4759984;30;20044;-86
2021/11/09 13:56:55;;;;;;;12.95;10.27;;;6.70;99.90;;;;;;4757861;30;20414;-86
2021/11/09 13:59:27;;;;;;;12.07;9.93;;;6.80;99.90;;;;;;4744430;30;20039;-84
2021/11/09 14:12:58;;;;;;;11.10;5.55;;;6.60;99.90;;;;;;4775570;30;20052;-82
2021/11/09 14:18:44;;;;;;;10.63;5.55;;;6.50;99.90;;;;;;4771991;29;20059;-85
2021/11/09 14:21:31;;;;;;;11.75;8.23;;;6.50;99.90;;;;;;4734107;29;20055;-85
2021/11/09 14:24:14;;;;;;;6.18;5.57;;;6.50;99.90;;;;;;4741927;30;20052;-86
2021/11/09 14:27:14;;;;;;;11.82;7.18;;;6.40;99.90;;;;;;4756801;30;20047;-83
2021/11/09 14:30:10;;;;;;;6.05;5.22;;;6.40;99.90;;;;;;4778738;29;20078;-83
2021/11/09 14:33:21;;;;;;;5.63;4.95;;;6.40;99.90;;;;;;4656854;30;20061;-81
2021/11/09 14:35:57;;;;;;;8.40;4.72;;;6.30;99.90;;;;;;4731713;30;20048;-83
2021/11/09 14:38:28;;;;;;;9.43;6.25;;;6.30;99.90;;;;;;4773939;29;20066;-83
2021/11/09 14:49:44;;;;;;;6.60;4.18;;;6.30;99.90;;;;;;4911946;24;20056;-80
2021/11/09 14:54:28;;;;;;;6.47;2.95;;;6.20;99.90;;;;;;4716495;30;20052;-83
2021/11/09 14:58:30;;;;;;;7.05;4.10;;;6.10;99.90;;;;;;4718397;30;20052;-83
2021/11/09 15:27:18;;;;;;;8.93;4.13;;;5.20;99.90;;;;;;4781723;29;20058;-81
2021/11/09 15:29:56;;;;;;;9.48;4.35;;;5.20;99.90;;;;;;4781606;29;20058;-82
2021/11/09 15:32:30;;;;;;;;;;;5.10;99.90;;;;;;4798860;29;20517;-82
2021/11/09 15:35:09;;;;;;;6.38;4.90;;;5.00;99.90;;;;;;4780530;29;19940;-82
2021/11/09 15:37:40;;;;;;;4.60;4.18;;;5.00;99.90;;;;;;4793559;29;20047;-84
2021/11/09 15:40:11;;;;;;;4.25;3.38;;;4.90;99.90;;;;;;4772435;30;20062;-82
2021/11/09 15:42:42;;;;;;;7.88;5.63;;;4.90;99.90;;;;;;4771905;29;20405;-80
2021/11/09 15:45:11;;;;;;;3.67;3.45;;;4.80;99.90;;;;;;4796111;29;20043;-81
2021/11/09 15:47:39;;;;;;;5.32;4.38;;;4.70;99.90;;;;;;4798942;29;20048;-81
2021/11/09 15:50:08;;;;;;;3.42;3.13;;;4.70;99.90;;;;;;4759154;29;20394;-81
2021/11/09 15:52:36;;;;;;;4.78;3.28;;;4.70;99.90;;;;;;4776412;29;20051;-88
2021/11/09 15:55:05;;;;;;;11.48;3.90;;;4.60;99.90;;;;;;4754607;30;20502;-87
2021/11/09 15:58:06;;;;;;;6.45;4.68;;;4.50;99.90;;;;;;4740253;30;20060;-88
2021/11/09 16:00:37;;;;;;;4.60;3.37;;;4.60;99.90;;;;;;4751694;30;20059;-84
2021/11/09 16:03:05;;;;;;;3.47;3.15;;;4.50;99.90;;;;;;4733067;30;20060;-84
2021/11/09 16:06:19;;;;;;;6.57;5.13;;;4.50;99.90;;;;;;4743613;30;20532;-85
2021/11/09 16:09:11;;;;;;;4.85;4.45;;;4.30;99.90;;;;;;4693604;30;20057;-88
2021/11/09 16:12:20;;;;;;;4.82;4.28;;;4.20;99.90;;;;;;4768337;30;20044;-86
2021/11/09 16:15:54;;;;;;;5.80;3.17;;;4.20;99.90;;;;;;4681435;30;20398;-85
2021/11/09 16:19:34;;;;;;;7.32;4.30;;;4.20;99.90;;;;;;4732233;24;20034;-86
2021/11/09 16:22:13;;;;;;;7.30;3.28;;;4.10;99.90;;;;;;4730837;30;20052;-87
2021/11/09 16:24:43;;;;;;;9.25;4.10;;;4.10;99.90;;;;;;4732616;30;20054;-83
2021/11/09 16:27:22;;;;;;;5.25;4.20;;;4.00;99.90;;;;;;4753166;30;20596;-79
2021/11/09 16:29:56;;;;;;;5.05;4.70;;;4.00;99.90;;;;;;4774647;30;20516;-80
2021/11/09 16:32:53;;;;;;;4.78;4.38;;;4.00;99.90;;;;;;4787209;30;20058;-80
2021/11/09 16:38:01;;;;;;;7.80;4.72;;;4.00;99.90;;;;;;4787281;29;20701;-80
2021/11/09 16:40:49;;;;;;;6.88;5.13;;;3.90;99.90;;;;;;4787631;30;20052;-81
2021/11/09 16:46:26;;;;;;;7.65;3.92;;;3.80;99.90;;;;;;4771620;29;20055;-81
2021/11/09 16:49:08;;;;;;;15.82;6.05;;;3.80;99.90;;;;;;4753273;30;20055;-81